Time;durP1;ratioP1;P1;durP2;ratioP2;P2;SDS_P1;SDS_P2;PMS_P1;PMS_P2;Temp;Humidity;BMP_temperature;BMP_pressure;BME280_temperature;BME280_humidity;BME280_pressure;Samples;Min_cycle;Max_cycle;Signal;HPM_P1;HPM_P2
2022/06/22 00:01:38;;;;;;;1.40;0.70;;;;;;;13.79;62.31;97847.91;1741284;82;21023;-41
2022/06/22 00:04:06;;;;;;;1.82;0.82;;;;;;;13.77;62.69;97842.86;1741284;82;21606;-41
2022/06/22 00:06:42;;;;;;;1.92;1.00;;;;;;;13.73;62.74;97838.08;1741318;82;21010;-41
2022/06/22 00:09:29;;;;;;;1.50;0.85;;;;;;;13.72;63.03;97831.09;1741119;82;21047;-41
2022/06/22 00:11:57;;;;;;;1.00;0.72;;;;;;;13.71;62.77;97831.49;1741436;82;21150;-41
2022/06/22 00:14:47;;;;;;;1.90;0.60;;;;;;;13.62;62.98;97825.83;1741513;82;21546;-41
2022/06/22 00:17:35;;;;;;;2.22;0.78;;;;;;;13.58;63.03;97821.81;1741440;82;25794;-41
2022/06/22 00:20:22;;;;;;;8.00;0.88;;;;;;;13.60;63.19;97821.41;1741277;82;21702;-41
2022/06/22 00:22:56;;;;;;;1.35;0.78;;;;;;;13.61;63.52;97818.25;1741260;82;20996;-41
2022/06/22 00:25:35;;;;;;;4.22;0.80;;;;;;;13.58;63.88;97817.73;1741790;82;21087;-41
2022/06/22 00:28:33;;;;;;;0.60;0.60;;;;;;;13.59;63.91;97808.97;1696877;82;21055;-41
2022/06/22 00:31:25;;;;;;;4.45;0.80;;;;;;;13.59;64.09;97803.53;1746866;82;20978;-41
2022/06/22 00:34:19;;;;;;;1.12;0.70;;;;;;;13.57;64.27;97805.88;1746654;82;21545;-41
2022/06/22 00:36:56;;;;;;;1.15;0.53;;;;;;;13.54;64.45;97799.92;1746918;82;20967;-41
2022/06/22 00:39:35;;;;;;;1.62;0.60;;;;;;;13.53;64.58;97798.37;1746821;82;21835;-41
2022/06/22 00:42:18;;;;;;;1.15;0.70;;;;;;;13.55;64.80;97796.02;1746415;82;21567;-41
2022/06/22 00:45:10;;;;;;;1.12;0.50;;;;;;;13.57;65.01;97795.77;1746659;82;20974;-41
2022/06/22 00:47:56;;;;;;;1.22;0.80;;;;;;;13.49;65.09;97786.97;1746767;82;21062;-41
2022/06/22 00:50:31;;;;;;;0.72;0.45;;;;;;;13.43;65.40;97778.33;1746924;82;20979;-41
2022/06/22 00:53:05;;;;;;;1.57;0.70;;;;;;;13.38;65.71;97782.30;1745202;82;21209;-41
2022/06/22 00:55:40;;;;;;;1.55;0.60;;;;;;;13.38;65.96;97780.94;1746667;82;21094;-41
2022/06/22 00:58:13;;;;;;;1.65;0.65;;;;;;;13.41;66.10;97778.73;1744841;82;21015;-41
2022/06/22 01:00:42;;;;;;;5.25;0.57;;;;;;;13.43;66.36;97770.16;1746603;82;21039;-41
2022/06/22 01:03:19;;;;;;;;;;;;;;;13.41;66.53;97765.13;1749224;82;21575;-41
2022/06/22 01:06:03;;;;;;;1.20;0.50;;;;;;;13.44;66.66;97769.75;1746743;82;21059;-41
2022/06/22 01:09:00;;;;;;;0.90;0.50;;;;;;;13.36;67.04;97769.69;1732600;82;20986;-41
2022/06/22 01:15:12;;;;;;;1.17;0.68;;;;;;;13.41;67.41;97766.48;1746674;82;21002;-41
2022/06/22 01:18:03;;;;;;;0.98;0.88;;;;;;;13.50;67.33;97760.52;1746930;82;20943;-41
2022/06/22 01:20:52;;;;;;;2.00;0.62;;;;;;;13.58;67.10;97759.78;1718950;82;21098;-41
2022/06/22 01:23:46;;;;;;;0.93;0.60;;;;;;;13.62;66.91;97749.58;1746566;82;21012;-41
2022/06/22 01:26:27;;;;;;;1.05;0.70;;;;;;;13.66;66.72;97733.94;1746606;82;21509;-41
2022/06/22 01:29:08;;;;;;;3.80;0.88;;;;;;;13.64;66.59;97737.10;1747083;82;21046;-41
2022/06/22 01:31:36;;;;;;;2.17;0.85;;;;;;;13.65;66.52;97741.95;1749445;82;21592;-41
2022/06/22 01:34:03;;;;;;;2.12;0.70;;;;;;;13.66;66.60;97736.66;1749268;82;21142;-41
2022/06/22 01:36:32;;;;;;;1.80;0.70;;;;;;;13.73;66.56;97736.53;1744201;82;20986;-41
2022/06/22 01:39:01;;;;;;;1.55;0.90;;;;;;;13.76;66.41;97728.88;1749666;82;21006;-41
2022/06/22 01:41:46;;;;;;;1.42;0.60;;;;;;;13.75;66.47;97728.70;1749358;82;21053;-41
2022/06/22 01:44:47;;;;;;;1.85;0.78;;;;;;;13.74;66.43;97730.68;1749086;82;21055;-41
2022/06/22 01:47:43;;;;;;;1.67;0.70;;;;;;;13.72;66.52;97728.95;1749757;82;21201;-41
2022/06/22 01:50:38;;;;;;;2.20;0.70;;;;;;;13.67;66.62;97721.86;1749792;82;21037;-41
2022/06/22 01:53:24;;;;;;;0.88;0.70;;;;;;;13.65;66.96;97729.08;1749923;82;21525;-41
2022/06/22 01:55:59;;;;;;;0.72;0.65;;;;;;;13.63;67.20;97725.25;1749886;82;21046;-41
2022/06/22 01:58:47;;;;;;;0.70;0.65;;;;;;;13.62;67.64;97727.80;1725344;82;21031;-41
2022/06/22 02:01:55;;;;;;;2.40;0.72;;;;;;;13.61;67.77;97727.03;1749803;82;21089;-41
2022/06/22 02:04:45;;;;;;;0.90;0.60;;;;;;;13.59;67.90;97732.14;1749843;82;20959;-41
2022/06/22 02:07:45;;;;;;;1.05;0.65;;;;;;;13.52;67.95;97726.05;1749662;82;21046;-41
2022/06/22 02:10:39;;;;;;;1.47;0.57;;;;;;;13.51;68.22;97728.62;1749600;82;20923;-41
2022/06/22 02:13:33;;;;;;;2.27;0.70;;;;;;;13.57;68.50;97732.37;1749703;82;21035;-41
2022/06/22 02:16:09;;;;;;;3.00;0.75;;;;;;;13.60;68.29;97726.88;1749835;82;21096;-41
2022/06/22 02:18:50;;;;;;;2.10;0.60;;;;;;;13.59;68.59;97723.97;1749480;82;20966;-41
2022/06/22 02:21:27;;;;;;;1.72;0.80;;;;;;;13.61;68.65;97720.81;1749907;81;21014;-41
2022/06/22 02:24:21;;;;;;;2.35;0.70;;;;;;;13.60;68.60;97718.70;1749793;82;20957;-41
2022/06/22 02:27:11;;;;;;;0.80;0.60;;;;;;;13.61;68.34;97723.53;1749942;82;21565;-41
2022/06/22 02:29:42;;;;;;;1.55;0.75;;;;;;;13.61;68.53;97722.17;1749789;82;21908;-42
2022/06/22 02:32:13;;;;;;;1.05;0.70;;;;;;;13.63;68.66;97721.94;1750226;82;21038;-41
2022/06/22 02:34:42;;;;;;;1.30;0.80;;;;;;;13.64;68.81;97722.72;1750156;82;21003;-41
2022/06/22 02:37:09;;;;;;;1.50;0.93;;;;;;;13.63;68.87;97726.62;1750304;82;20947;-41
2022/06/22 02:39:44;;;;;;;0.95;0.80;;;;;;;13.63;69.04;97721.94;1750141;82;21528;-41
2022/06/22 02:44:57;;;;;;;1.40;0.60;;;;;;;13.70;68.87;97726.49;1749808;82;21017;-41
2022/06/22 02:47:33;;;;;;;0.72;0.65;;;;;;;13.70;68.73;97725.88;1749967;82;21029;-41
2022/06/22 02:50:09;;;;;;;1.57;1.05;;;;;;;13.70;68.65;97725.88;1749349;82;21035;-41
2022/06/22 02:52:49;;;;;;;3.20;1.00;;;;;;;13.66;68.84;97732.58;1749819;82;21085;-41
2022/06/22 02:55:19;;;;;;;;;;;;;;;13.65;68.90;97728.34;1752382;82;23170;-41
2022/06/22 02:57:56;;;;;;;1.67;0.75;;;;;;;13.64;68.79;97720.77;1750080;81;20182;-41
2022/06/22 03:00:36;;;;;;;2.92;1.32;;;;;;;13.57;69.23;97721.48;1749867;82;21105;-41
2022/06/22 03:03:11;;;;;;;0.98;0.80;;;;;;;13.62;69.02;97733.24;1749649;82;20999;-41
2022/06/22 03:05:40;;;;;;;2.58;0.98;;;;;;;13.70;69.05;97727.85;1750051;82;20983;-41
2022/06/22 03:08:07;;;;;;;1.95;0.90;;;;;;;13.77;68.97;97736.64;1749997;82;21207;-41
2022/06/22 03:11:00;;;;;;;0.70;0.70;;;;;;;13.81;68.68;97737.92;1750192;82;21557;-41
2022/06/22 03:13:41;;;;;;;1.10;0.88;;;;;;;13.87;68.86;97741.70;1719039;82;21030;-41
2022/06/22 03:16:26;;;;;;;3.30;0.93;;;;;;;13.92;68.59;97739.84;1749915;82;21679;-41
2022/06/22 03:18:54;;;;;;;1.27;0.80;;;;;;;13.98;68.32;97734.08;1749893;82;21038;-41
2022/06/22 03:21:22;;;;;;;1.05;0.85;;;;;;;14.04;68.39;97741.17;1750097;82;21118;-41
2022/06/22 03:23:53;;;;;;;0.95;0.80;;;;;;;14.07;68.13;97737.00;1749700;82;21094;-41
2022/06/22 03:26:28;;;;;;;1.65;0.68;;;;;;;14.10;68.21;97741.59;1726672;82;21486;-41
2022/06/22 03:29:27;;;;;;;0.80;0.60;;;;;;;14.11;68.07;97743.14;1685918;85;21006;-41
2022/06/22 03:32:01;;;;;;;3.98;1.00;;;;;;;14.14;67.79;97745.02;1721691;82;21084;-41
2022/06/22 03:34:33;;;;;;;1.22;0.70;;;;;;;14.11;67.78;97740.41;1721567;83;21260;-41
2022/06/22 03:37:27;;;;;;;1.35;0.80;;;;;;;14.15;67.86;97739.73;1703547;83;21036;-41
2022/06/22 03:39:59;;;;;;;1.12;0.80;;;;;;;14.17;67.85;97736.01;1686488;84;21049;-41
2022/06/22 03:42:48;;;;;;;1.00;0.90;;;;;;;14.19;67.78;97739.06;1720516;83;21601;-41
2022/06/22 03:45:27;;;;;;;1.25;0.90;;;;;;;14.22;67.64;97742.33;1721898;83;21041;-41
2022/06/22 03:48:03;;;;;;;0.90;0.80;;;;;;;14.22;67.75;97747.78;1721758;83;21070;-41
2022/06/22 03:50:41;;;;;;;0.80;0.70;;;;;;;14.27;67.64;97754.09;1721303;83;21597;-41
2022/06/22 03:53:14;;;;;;;1.10;0.70;;;;;;;14.34;67.38;97749.83;1721832;82;21016;-41
2022/06/22 03:55:45;;;;;;;1.07;0.98;;;;;;;14.38;67.12;97755.85;1686457;85;21016;-41
2022/06/22 03:58:12;;;;;;;1.10;0.80;;;;;;;14.34;67.33;97755.28;1686848;85;21043;-41
2022/06/22 04:00:41;;;;;;;1.50;0.88;;;;;;;14.37;67.73;97752.95;1686697;85;21245;-41
2022/06/22 04:03:08;;;;;;;4.12;0.95;;;;;;;14.43;67.61;97758.05;1721371;82;21028;-41
2022/06/22 04:05:40;;;;;;;3.17;0.85;;;;;;;14.52;67.61;97754.94;1721569;83;20941;-41
2022/06/22 04:08:29;;;;;;;1.80;0.90;;;;;;;14.64;66.75;97758.34;1686622;84;21044;-41
2022/06/22 04:11:10;;;;;;;2.67;0.93;;;;;;;14.66;66.37;97759.30;1686770;85;21064;-41
2022/06/22 04:13:58;;;;;;;3.52;0.98;;;;;;;14.66;66.59;97765.52;1686681;85;21176;-41
2022/06/22 04:16:35;;;;;;;3.33;0.80;;;;;;;14.67;65.70;97767.63;1721603;83;20977;-41
2022/06/22 04:19:22;;;;;;;2.22;0.80;;;;;;;14.66;65.42;97764.75;1721529;83;21522;-41
2022/06/22 04:21:56;;;;;;;2.27;0.82;;;;;;;14.67;65.55;97768.99;1716893;83;21021;-42
2022/06/22 04:24:28;;;;;;;0.62;0.55;;;;;;;14.74;65.43;97771.56;1721840;83;21042;-41
2022/06/22 04:27:17;;;;;;;1.00;0.62;;;;;;;14.84;65.00;97776.01;1717294;83;21855;-41
2022/06/22 04:30:13;;;;;;;2.55;0.90;;;;;;;14.88;64.70;97776.69;1686800;84;21032;-41
2022/06/22 04:33:05;;;;;;;0.93;0.60;;;;;;;14.87;64.66;97786.66;1686660;85;21102;-41
2022/06/22 04:35:50;;;;;;;1.27;0.90;;;;;;;14.86;64.46;97800.16;1686680;85;21005;-41
2022/06/22 04:38:26;;;;;;;1.02;0.60;;;;;;;14.72;64.79;97790.31;1721564;83;21594;-41
2022/06/22 04:41:03;;;;;;;2.15;0.80;;;;;;;14.67;65.15;97783.99;1686624;85;21326;-41
2022/06/22 04:43:30;;;;;;;1.02;0.62;;;;;;;14.68;65.10;97790.40;1686479;85;21023;-41
2022/06/22 04:45:57;;;;;;;2.85;0.90;;;;;;;14.77;64.73;97796.63;1686589;85;21048;-41
2022/06/22 04:48:33;;;;;;;0.75;0.62;;;;;;;14.82;64.58;97793.98;1686514;85;21611;-41
2022/06/22 04:51:01;;;;;;;1.10;0.80;;;;;;;14.79;64.46;97793.66;1721462;82;21024;-41
2022/06/22 04:53:40;;;;;;;0.87;0.63;;;;;;;14.78;64.04;97795.44;1722033;83;21185;-41
2022/06/22 04:56:13;;;;;;;2.02;0.78;;;;;;;14.76;63.92;97799.95;1721232;83;20929;-41
2022/06/22 04:58:47;;;;;;;1.45;0.70;;;;;;;14.69;63.98;97806.94;1719447;83;20977;-41
2022/06/22 05:01:29;;;;;;;0.70;0.70;;;;;;;14.63;64.12;97811.36;1686803;85;21036;-41
2022/06/22 05:04:01;;;;;;;1.52;0.90;;;;;;;14.57;64.42;97806.84;1721034;83;21448;-41
2022/06/22 05:06:45;;;;;;;3.00;1.02;;;;;;;14.53;64.93;97804.17;1721706;83;21053;-41
2022/06/22 05:09:27;;;;;;;2.98;1.10;;;;;;;14.54;66.38;97818.58;1736458;82;20981;-41
2022/06/22 05:11:54;;;;;;;2.95;0.90;;;;;;;14.42;67.38;97824.70;1743207;82;21017;-41
2022/06/22 05:14:27;;;;;;;2.22;0.90;;;;;;;14.26;68.63;97826.73;1743104;82;20938;-41
2022/06/22 05:17:08;;;;;;;2.00;1.00;;;;;;;14.12;69.63;97824.30;1738385;81;21081;-41
2022/06/22 05:19:56;;;;;;;0.95;0.78;;;;;;;14.03;70.31;97824.87;1742969;82;21265;-41
2022/06/22 05:22:23;;;;;;;2.67;0.80;;;;;;;14.01;70.51;97823.73;1743178;82;21049;-41
2022/06/22 05:24:55;;;;;;;3.17;0.90;;;;;;;13.98;70.79;97822.63;1743181;82;21008;-41
2022/06/22 05:27:26;;;;;;;2.65;1.10;;;;;;;13.97;71.20;97820.31;1743100;82;21694;-42
2022/06/22 05:30:02;;;;;;;1.82;0.95;;;;;;;13.98;71.42;97810.96;1743419;82;21068;-42
2022/06/22 05:32:40;;;;;;;2.00;0.88;;;;;;;14.04;71.48;97810.03;1748965;82;21105;-41
2022/06/22 05:35:11;;;;;;;3.30;0.90;;;;;;;14.14;71.31;97811.78;1748970;82;21002;-41
2022/06/22 05:37:42;;;;;;;2.17;1.00;;;;;;;14.28;71.19;97812.85;1749142;81;20974;-41
2022/06/22 05:40:11;;;;;;;1.25;0.98;;;;;;;14.35;70.80;97809.98;1749153;82;21037;-41
2022/06/22 05:42:38;;;;;;;4.55;1.00;;;;;;;14.40;71.10;97811.48;1749167;82;21085;-42
2022/06/22 05:45:16;;;;;;;2.65;1.00;;;;;;;14.47;70.90;97810.57;1749061;82;21906;-41
2022/06/22 05:47:45;;;;;;;1.22;0.85;;;;;;;14.58;70.87;97808.36;1749146;82;21009;-42
2022/06/22 05:50:33;;;;;;;1.67;0.82;;;;;;;14.76;68.96;97813.59;1749209;82;20930;-41
2022/06/22 05:53:18;;;;;;;2.27;0.82;;;;;;;14.86;69.03;97816.52;1748921;82;21573;-41
2022/06/22 05:56:07;;;;;;;1.37;1.00;;;;;;;14.85;68.92;97817.11;1719242;82;21017;-41
2022/06/22 05:59:15;;;;;;;1.50;1.00;;;;;;;14.81;69.20;97812.34;1719459;83;21094;-41
2022/06/22 06:01:47;;;;;;;1.98;1.00;;;;;;;14.85;69.65;97819.84;1719359;83;21581;-41
2022/06/22 06:04:40;;;;;;;0.78;0.72;;;;;;;14.87;69.48;97822.90;1719426;83;21017;-41
2022/06/22 06:07:25;;;;;;;1.00;0.85;;;;;;;14.89;69.11;97830.67;1719332;83;21016;-41
2022/06/22 06:09:52;;;;;;;1.20;1.00;;;;;;;14.91;68.99;97829.03;1719245;83;21013;-41
2022/06/22 06:12:37;;;;;;;2.72;0.80;;;;;;;14.97;68.84;97819.75;1719201;83;23153;-41
2022/06/22 06:15:06;;;;;;;1.30;1.10;;;;;;;15.03;67.95;97820.19;1719232;83;21021;-42
2022/06/22 06:17:37;;;;;;;0.90;0.80;;;;;;;15.07;68.50;97816.77;1719769;83;20933;-42
2022/06/22 06:20:09;;;;;;;0.57;0.55;;;;;;;15.14;68.81;97824.80;1719065;83;21586;-41
2022/06/22 06:22:36;;;;;;;2.40;1.00;;;;;;;15.26;67.40;97823.93;1719740;82;21582;-42
2022/06/22 06:28:08;;;;;;;0.70;0.70;;;;;;;15.37;65.41;97820.34;1714707;83;21009;-42
2022/06/22 06:30:45;;;;;;;1.45;0.68;;;;;;;15.32;65.33;97815.41;1719414;83;20957;-41
2022/06/22 06:33:23;;;;;;;1.82;1.10;;;;;;;15.32;66.15;97812.08;1719209;83;20993;-41
2022/06/22 06:36:17;;;;;;;0.85;0.75;;;;;;;15.36;66.13;97814.71;1719011;83;21045;-42
2022/06/22 06:38:55;;;;;;;2.77;1.20;;;;;;;15.40;65.31;97814.02;1723991;82;21252;-42
2022/06/22 06:41:39;;;;;;;1.12;0.70;;;;;;;15.44;64.31;97804.54;1719301;83;20981;-41
2022/06/22 06:44:10;;;;;;;2.12;1.00;;;;;;;15.46;64.66;97806.84;1719043;83;21020;-41
2022/06/22 06:46:42;;;;;;;1.32;0.70;;;;;;;15.47;63.91;97808.39;1719176;83;20985;-42
2022/06/22 06:49:35;;;;;;;1.52;1.00;;;;;;;15.50;63.42;97802.06;1682214;85;21095;-42
2022/06/22 06:52:29;;;;;;;1.20;0.80;;;;;;;15.56;63.44;97806.61;1681887;85;21140;-41
2022/06/22 06:55:17;;;;;;;1.82;0.82;;;;;;;15.70;62.66;97813.66;1681146;85;20965;-42
2022/06/22 06:58:02;;;;;;;1.87;0.90;;;;;;;15.81;62.66;97810.05;1687945;83;21008;-42
2022/06/22 07:00:29;;;;;;;0.78;0.70;;;;;;;16.02;63.21;97806.72;1682433;85;21581;-42
2022/06/22 07:02:56;;;;;;;1.42;0.70;;;;;;;16.25;62.83;97815.28;1682460;85;21080;-42
2022/06/22 07:05:24;;;;;;;4.30;0.88;;;;;;;16.50;62.85;97821.40;1682373;84;21211;-41
2022/06/22 07:08:01;;;;;;;1.15;1.00;;;;;;;16.76;60.35;97822.96;1682446;84;21056;-42
2022/06/22 07:10:41;;;;;;;1.10;0.82;;;;;;;16.95;59.38;97815.13;1682569;85;21036;-42
2022/06/22 07:13:26;;;;;;;1.20;0.70;;;;;;;17.06;59.47;97827.72;1682444;85;21080;-42
2022/06/22 07:16:01;;;;;;;1.15;0.90;;;;;;;17.11;58.85;97828.54;1682345;85;21021;-42
2022/06/22 07:18:42;;;;;;;1.57;0.90;;;;;;;17.15;57.75;97827.81;1682348;84;21305;-41
2022/06/22 07:21:18;;;;;;;1.30;0.90;;;;;;;17.04;56.80;97830.89;1681613;85;21635;-41
2022/06/22 07:23:50;;;;;;;2.62;0.75;;;;;;;16.88;56.42;97833.16;1682281;84;20945;-41
2022/06/22 07:27:03;;;;;;;0.93;0.78;;;;;;;16.73;57.52;97832.06;1682286;84;20989;-41
2022/06/22 07:29:43;;;;;;;1.62;1.00;;;;;;;16.65;57.75;97828.61;1647354;86;21538;-41
2022/06/22 07:32:25;;;;;;;1.60;0.82;;;;;;;16.48;58.46;97836.09;1656386;85;23175;-41
2022/06/22 07:34:56;;;;;;;2.10;1.00;;;;;;;16.45;58.59;97828.77;1653745;85;21034;-42
2022/06/22 07:37:37;;;;;;;1.75;1.00;;;;;;;16.51;59.68;97828.37;1674971;85;21010;-42
2022/06/22 07:40:11;;;;;;;1.00;0.90;;;;;;;16.68;59.14;97832.60;1671272;85;21587;-42
2022/06/22 07:42:39;;;;;;;1.05;0.80;;;;;;;16.86;56.83;97843.77;1671931;85;21029;-42
2022/06/22 07:45:15;;;;;;;0.95;0.75;;;;;;;16.99;57.56;97843.78;1671898;85;21185;-41
2022/06/22 07:48:00;;;;;;;1.10;1.00;;;;;;;17.13;57.10;97838.47;1671808;85;21003;-41
2022/06/22 07:50:32;;;;;;;1.80;0.85;;;;;;;17.24;56.13;97845.72;1661620;85;21046;-41
2022/06/22 07:53:06;;;;;;;1.77;0.78;;;;;;;17.28;55.03;97847.77;1672018;85;21237;-41
2022/06/22 07:55:53;;;;;;;1.62;0.80;;;;;;;17.19;54.52;97847.03;1671782;85;21058;-41
2022/06/22 07:58:50;;;;;;;0.98;0.65;;;;;;;17.12;55.77;97849.24;1647943;86;21255;-41
2022/06/22 08:01:23;;;;;;;1.85;0.70;;;;;;;17.12;55.03;97850.02;1713927;83;20930;-41
2022/06/22 08:04:04;;;;;;;2.00;1.00;;;;;;;17.18;54.40;97840.65;1714108;83;21264;-42
2022/06/22 08:06:38;;;;;;;1.00;0.80;;;;;;;17.05;54.34;97805.64;1714027;82;21492;-41
2022/06/22 08:09:25;;;;;;;1.22;1.05;;;;;;;17.42;54.13;97839.08;1714182;83;21010;-42
2022/06/22 08:12:03;;;;;;;3.92;1.00;;;;;;;17.54;54.42;97838.27;1713665;82;21901;-42
2022/06/22 08:14:38;;;;;;;1.35;0.85;;;;;;;17.73;54.93;97843.34;1713864;83;21022;-42
2022/06/22 08:17:38;;;;;;;1.32;0.70;;;;;;;17.93;53.80;97847.93;1704004;83;21067;-42
2022/06/22 08:20:06;;;;;;;1.77;1.05;;;;;;;18.08;53.10;97842.71;1713815;83;21061;-41
2022/06/22 08:22:33;;;;;;;0.90;0.70;;;;;;;18.21;51.92;97846.92;1714040;82;21508;-41
2022/06/22 08:25:00;;;;;;;0.98;0.80;;;;;;;18.27;52.51;97855.34;1713986;83;21136;-42
2022/06/22 08:27:27;;;;;;;1.27;0.72;;;;;;;18.39;52.47;97858.64;1714027;83;21048;-42
2022/06/22 08:29:55;;;;;;;1.35;0.90;;;;;;;18.52;52.18;97853.84;1714138;82;20994;-42
2022/06/22 08:32:44;;;;;;;2.72;0.90;;;;;;;18.74;51.09;97857.17;1713848;82;20969;-42
2022/06/22 08:35:24;;;;;;;2.40;0.60;;;;;;;18.97;50.31;97851.19;1713927;82;21472;-42
2022/06/22 08:38:07;;;;;;;2.87;0.80;;;;;;;19.26;50.23;97850.23;1713887;83;21125;-42
2022/06/22 08:40:59;;;;;;;1.52;0.60;;;;;;;19.47;48.86;97856.24;1679120;85;21016;-42
2022/06/22 08:43:47;;;;;;;0.62;0.60;;;;;;;19.51;47.41;97858.84;1679200;85;21020;-42
2022/06/22 08:46:40;;;;;;;1.15;0.80;;;;;;;19.44;47.61;97861.28;1679217;85;21162;-42
2022/06/22 08:49:39;;;;;;;1.35;0.78;;;;;;;19.39;47.73;97859.11;1678461;85;21001;-42
2022/06/22 08:52:37;;;;;;;2.08;0.78;;;;;;;19.40;48.03;97859.27;1679260;85;21147;-42
2022/06/22 08:55:26;;;;;;;4.17;0.85;;;;;;;19.51;47.07;97859.61;1669767;85;20917;-41
2022/06/22 08:58:17;;;;;;;1.73;0.73;;;;;;;19.64;47.60;97857.35;1672438;85;21566;-42
2022/06/22 09:01:01;;;;;;;2.80;0.90;;;;;;;19.77;47.53;97861.48;1676994;85;21570;-42
2022/06/22 09:04:10;;;;;;;0.80;0.60;;;;;;;19.88;45.68;97856.92;1679223;85;21040;-42
2022/06/22 09:07:18;;;;;;;1.27;0.70;;;;;;;20.02;45.88;97858.29;1679165;85;23238;-41
2022/06/22 09:10:41;;;;;;;0.72;0.60;;;;;;;20.18;46.88;97864.26;1679365;85;21046;-41
2022/06/22 09:14:04;;;;;;;1.37;0.70;;;;;;;20.31;45.21;97865.48;1679458;85;21514;-42
2022/06/22 09:17:06;;;;;;;0.60;0.60;;;;;;;20.32;45.88;97858.16;1633044;87;21096;-42
2022/06/22 09:19:50;;;;;;;0.78;0.70;;;;;;;20.42;46.04;97859.52;1714009;83;21003;-42
2022/06/22 09:22:28;;;;;;;1.55;0.80;;;;;;;20.50;44.79;97862.09;1713862;82;21134;-42
2022/06/22 09:25:29;;;;;;;0.65;0.65;;;;;;;20.48;45.91;97862.55;1678853;85;21024;-42
2022/06/22 09:28:11;;;;;;;2.33;0.70;;;;;;;20.43;46.51;97861.05;1679468;85;21567;-42
2022/06/22 09:31:13;;;;;;;1.12;0.80;;;;;;;20.22;46.24;97857.98;1679182;85;21056;-42
2022/06/22 09:34:22;;;;;;;1.07;0.80;;;;;;;19.96;46.58;97858.13;1713765;83;21041;-41
2022/06/22 09:37:19;;;;;;;3.50;1.10;;;;;;;19.62;47.51;97863.91;1685290;84;21257;-42
2022/06/22 09:40:13;;;;;;;0.72;0.55;;;;;;;19.42;48.05;97865.66;1685073;85;21009;-41
2022/06/22 09:43:00;;;;;;;0.98;0.80;;;;;;;19.28;48.18;97868.38;1651705;86;21104;-41
2022/06/22 09:47:26;;;;;;;0.80;0.70;;;;;;;19.19;47.63;97865.61;1779019;79;22378;-42
2022/06/22 09:49:59;;;;;;;;;;;;;;;19.10;48.42;97864.20;1741717;82;20998;-42
2022/06/22 09:52:59;;;;;;;0.60;0.60;;;;;;;19.14;49.86;97870.32;1739198;82;21129;-42
2022/06/22 09:58:55;;;;;;;1.65;0.90;;;;;;;19.00;50.34;97881.86;1739304;82;20966;-42
2022/06/22 10:01:44;;;;;;;1.32;0.80;;;;;;;18.92;51.10;97892.37;1739281;82;20978;-42
2022/06/22 10:04:46;;;;;;;3.72;1.05;;;;;;;18.91;51.36;97888.69;1735025;82;20935;-42
2022/06/22 10:07:36;;;;;;;3.30;0.70;;;;;;;18.84;52.05;97899.93;1739030;82;21246;-42
2022/06/22 10:10:24;;;;;;;0.82;0.68;;;;;;;18.73;52.48;97898.98;1739009;82;21560;-42
2022/06/22 10:13:40;;;;;;;1.00;0.90;;;;;;;18.72;54.20;97898.05;1739285;82;20958;-42
2022/06/22 10:16:41;;;;;;;1.22;0.80;;;;;;;18.73;53.62;97896.23;1676286;85;21036;-42
2022/06/22 10:19:35;;;;;;;1.00;0.78;;;;;;;18.72;51.72;97898.05;1676102;85;21055;-42
2022/06/22 10:22:17;;;;;;;1.65;0.75;;;;;;;18.71;51.22;97899.25;1724413;82;21159;-42
2022/06/22 10:24:59;;;;;;;0.98;0.72;;;;;;;18.69;51.28;97910.67;1738948;82;20962;-42
2022/06/22 10:27:43;;;;;;;1.60;0.80;;;;;;;18.66;50.46;97908.23;1706831;82;21492;-42
2022/06/22 10:30:21;;;;;;;1.62;0.78;;;;;;;18.62;50.96;97912.33;1738649;82;21505;-42
2022/06/22 10:33:12;;;;;;;2.45;0.90;;;;;;;18.63;52.51;97927.59;1739016;82;21009;-42
2022/06/22 10:36:18;;;;;;;4.25;2.98;;;;;;;18.64;53.34;97932.61;1739108;82;21234;-42
2022/06/22 10:39:12;;;;;;;1.10;0.80;;;;;;;18.58;52.96;97941.28;1738851;82;21527;-42
2022/06/22 10:45:41;;;;;;;1.50;1.00;;;;;;;18.39;55.42;97950.56;1740314;81;20970;-42
2022/06/22 10:48:23;;;;;;;3.40;1.02;;;;;;;18.35;56.58;97954.64;1754829;81;21019;-42
2022/06/22 10:51:27;;;;;;;2.62;1.10;;;;;;;18.36;57.13;97952.80;1755177;81;21246;-42
2022/06/22 10:54:32;;;;;;;1.12;0.95;;;;;;;18.40;56.88;97947.19;1755054;81;21017;-42
2022/06/22 10:57:23;;;;;;;1.92;1.00;;;;;;;18.45;55.15;97947.99;1754868;81;21031;-42
2022/06/22 11:00:33;;;;;;;1.00;0.90;;;;;;;18.48;55.65;97953.38;1754344;81;21021;-42
2022/06/22 11:03:39;;;;;;;2.22;0.95;;;;;;;18.53;54.92;97954.78;1754452;81;21497;-42
2022/06/22 11:06:45;;;;;;;2.20;1.20;;;;;;;18.58;54.70;97952.86;1754441;81;21262;-41
2022/06/22 11:09:51;;;;;;;2.20;0.90;;;;;;;18.59;53.55;97966.13;1754275;81;20947;-42
2022/06/22 11:12:57;;;;;;;2.85;1.20;;;;;;;18.54;54.10;97987.91;1754448;81;21030;-41
2022/06/22 11:15:56;;;;;;;3.87;0.90;;;;;;;18.33;55.38;98005.84;1754441;81;21378;-42
2022/06/22 11:18:47;;;;;;;3.37;0.87;;;;;;;17.91;55.46;98006.63;1754455;81;21292;-42
2022/06/22 11:21:57;;;;;;;2.52;0.60;;;;;;;17.45;55.15;98005.91;1752357;81;21216;-42
2022/06/22 11:24:59;;;;;;;1.95;0.80;;;;;;;16.85;54.55;98002.95;1715426;83;20960;-42
2022/06/22 11:30:58;;;;;;;3.90;0.90;;;;;;;15.97;59.88;98005.45;1715490;83;21001;-42
2022/06/22 11:33:52;;;;;;;2.92;0.60;;;;;;;15.70;61.42;98003.55;1751845;82;21009;-42
2022/06/22 11:36:31;;;;;;;0.47;0.47;;;;;;;15.62;62.11;98011.16;1715487;83;21934;-42
2022/06/22 11:39:35;;;;;;;2.80;0.75;;;;;;;15.60;62.45;98018.22;1711033;83;21009;-42
2022/06/22 11:42:16;;;;;;;1.57;0.78;;;;;;;15.59;62.70;98019.41;1751544;81;21021;-42
2022/06/22 11:48:27;;;;;;;0.98;0.70;;;;;;;15.50;64.10;98017.83;1751540;82;21020;-42
2022/06/22 11:51:28;;;;;;;1.57;0.60;;;;;;;15.53;65.20;98017.80;1715434;83;21151;-42
2022/06/22 11:54:20;;;;;;;0.65;0.60;;;;;;;15.96;67.13;98012.70;1701540;83;20969;-42
2022/06/22 11:57:17;;;;;;;0.82;0.70;;;;;;;16.57;66.89;98010.55;1715421;83;21029;-42
2022/06/22 12:00:14;;;;;;;0.82;0.50;;;;;;;17.13;65.28;98005.50;1751272;81;21519;-42
2022/06/22 12:03:10;;;;;;;0.50;0.50;;;;;;;17.45;63.34;97998.46;1700797;83;21079;-42
2022/06/22 12:05:58;;;;;;;1.10;0.57;;;;;;;17.60;61.71;97991.38;1715332;83;23162;-41
2022/06/22 12:08:56;;;;;;;2.65;0.65;;;;;;;17.67;61.13;97993.13;1751107;81;21475;-42
2022/06/22 12:11:49;;;;;;;0.95;0.70;;;;;;;17.69;61.48;97987.36;1686098;83;21005;-42
2022/06/22 12:17:58;;;;;;;0.60;0.60;;;;;;;17.82;61.88;97987.34;1715372;83;21563;-42
2022/06/22 12:20:45;;;;;;;0.90;0.70;;;;;;;17.97;61.60;97978.05;1751934;82;21183;-42
2022/06/22 12:23:27;;;;;;;2.42;0.70;;;;;;;18.12;62.50;97992.83;1715459;83;20963;-42
2022/06/22 12:26:17;;;;;;;2.75;0.80;;;;;;;18.31;61.22;97996.50;1751674;81;20962;-42
2022/06/22 12:29:14;;;;;;;5.00;0.98;;;;;;;18.52;61.32;97991.06;1689122;83;21017;-42
2022/06/22 12:31:51;;;;;;;0.80;0.70;;;;;;;18.72;61.22;97977.06;1751249;81;21045;-42
2022/06/22 12:34:35;;;;;;;0.70;0.62;;;;;;;18.97;59.82;97987.14;1751440;82;21091;-42
2022/06/22 12:37:08;;;;;;;2.00;1.12;;;;;;;19.22;58.73;98004.81;1714562;83;21072;-42
2022/06/22 12:39:46;;;;;;;2.25;0.98;;;;;;;19.62;57.13;98013.13;1751538;82;20946;-42
2022/06/22 12:42:39;;;;;;;1.80;1.05;;;;;;;20.18;56.96;98006.58;1732047;82;21032;-42
2022/06/22 12:45:45;;;;;;;1.87;0.90;;;;;;;20.85;55.96;98000.97;1714634;83;21072;-42
2022/06/22 12:48:47;;;;;;;4.80;0.90;;;;;;;21.74;52.44;98001.02;1715293;83;21323;-42
2022/06/22 12:51:51;;;;;;;3.35;0.60;;;;;;;22.77;50.02;97999.47;1715279;83;21019;-42
2022/06/22 12:54:28;;;;;;;1.62;0.70;;;;;;;23.62;47.48;98005.98;1715169;83;21519;-42
2022/06/22 12:57:03;;;;;;;2.65;0.75;;;;;;;24.16;43.13;98003.89;1715455;83;21555;-42
2022/06/22 12:59:44;;;;;;;0.95;0.68;;;;;;;24.18;42.85;98003.41;1715585;83;21036;-43
2022/06/22 13:02:15;;;;;;;1.62;0.70;;;;;;;24.18;41.84;98015.88;1710841;83;21134;-43
2022/06/22 13:04:46;;;;;;;0.72;0.60;;;;;;;24.15;41.89;98015.44;1715189;83;20917;-42
2022/06/22 13:07:17;;;;;;;1.77;0.70;;;;;;;24.29;40.48;98012.49;1715389;83;21515;-43
2022/06/22 13:09:45;;;;;;;1.67;0.80;;;;;;;24.43;42.26;98008.27;1715296;83;21007;-43
2022/06/22 13:12:36;;;;;;;2.30;0.70;;;;;;;24.50;40.67;98009.22;1715215;83;21096;-43
2022/06/22 13:15:14;;;;;;;2.37;0.70;;;;;;;24.47;41.06;98014.36;1751452;81;21556;-43
2022/06/22 13:18:30;;;;;;;1.17;0.75;;;;;;;24.43;41.67;98009.66;1751385;82;21079;-43